Time;durP1;ratioP1;P1;durP2;ratioP2;P2;SDS_P1;SDS_P2;PMS_P1;PMS_P2;Temp;Humidity;BMP_temperature;BMP_pressure;BME280_temperature;BME280_humidity;BME280_pressure;Samples;Min_cycle;Max_cycle;Signal;HPM_P1;HPM_P2
2021/12/17 00:00:17;;;;;;;12.88;11.30;;;;;;;;;;12463507;28;20376;-74
2021/12/17 00:12:27;;;;;;;14.85;12.35;;;;;;;;;;12447031;28;20046;-75
2021/12/17 00:18:38;;;;;;;13.32;11.05;;;;;;;;;;12446784;28;20384;-73
2021/12/17 00:44:12;;;;;;;12.93;11.55;;;;;;;;;;12444512;28;20061;-73
2021/12/17 00:50:34;;;;;;;12.73;11.32;;;;;;;;;;12444233;28;20033;-74
2021/12/17 00:56:36;;;;;;;10.45;9.35;;;;;;;;;;12444791;28;20041;-74
2021/12/17 01:02:39;;;;;;;10.83;9.77;;;;;;;;;;12460793;28;20050;-73
2021/12/17 01:08:40;;;;;;;16.60;14.70;;;;;;;;;;12444632;28;20034;-74
2021/12/17 01:14:47;;;;;;;12.32;10.60;;;;;;;;;;12460637;28;20046;-74
2021/12/17 01:47:28;;;;;;;11.35;10.18;;;;;;;;;;12443026;28;20509;-73
2021/12/17 01:59:58;;;;;;;8.77;7.85;;;;;;;;;;12443407;28;20263;-73
2021/12/17 02:06:03;;;;;;;8.07;7.28;;;;;;;;;;12463858;28;20034;-73
2021/12/17 02:37:03;;;;;;;9.80;8.93;;;;;;;;;;12450092;28;20030;-74
2021/12/17 02:49:47;;;;;;;11.27;9.77;;;;;;;;;;12449708;28;20038;-73
2021/12/17 02:55:57;;;;;;;10.65;9.60;;;;;;;;;;12465875;28;20050;-73
2021/12/17 03:01:58;;;;;;;9.45;8.45;;;;;;;;;;12433061;28;20037;-74
2021/12/17 03:08:00;;;;;;;10.47;8.93;;;;;;;;;;12465129;28;20029;-73
2021/12/17 03:14:02;;;;;;;11.95;10.75;;;;;;;;;;12449052;28;20042;-73
2021/12/17 03:26:26;;;;;;;12.38;11.15;;;;;;;;;;12448862;28;20053;-73
2021/12/17 03:32:29;;;;;;;14.32;12.63;;;;;;;;;;12463915;28;20071;-73
2021/12/17 03:38:30;;;;;;;10.40;9.35;;;;;;;;;;12448255;28;20069;-73
2021/12/17 03:44:32;;;;;;;10.57;9.45;;;;;;;;;;12463481;28;20042;-74
2021/12/17 03:50:37;;;;;;;10.10;9.05;;;;;;;;;;12447039;28;20034;-74
2021/12/17 03:56:40;;;;;;;7.80;7.10;;;;;;;;;;12463211;28;20395;-73
2021/12/17 04:02:42;;;;;;;11.95;9.45;;;;;;;;;;12462690;28;20049;-73
2021/12/17 04:08:44;;;;;;;10.98;9.82;;;;;;;;;;12445858;28;20040;-73
2021/12/17 04:15:35;;;;;;;10.18;9.07;;;;;;;;;;12446187;28;20050;-73
2021/12/17 04:21:37;;;;;;;10.77;9.68;;;;;;;;;;12447345;28;20030;-73
2021/12/17 04:27:39;;;;;;;7.80;6.97;;;;;;;;;;12461158;28;20407;-74
2021/12/17 04:33:43;;;;;;;8.68;7.57;;;;;;;;;;12461728;28;20418;-75
2021/12/17 04:39:46;;;;;;;12.73;11.43;;;;;;;;;;12461252;28;20037;-72
2021/12/17 04:46:13;;;;;;;11.27;10.10;;;;;;;;;;12461182;28;20474;-74
2021/12/17 04:58:34;;;;;;;12.55;11.10;;;;;;;;;;12445439;28;20410;-73
2021/12/17 05:04:37;;;;;;;;;;;;;;;;;;12428506;28;20395;-73
2021/12/17 05:23:11;;;;;;;11.52;10.45;;;;;;;;;;12443446;28;20045;-75
2021/12/17 05:29:15;;;;;;;12.05;10.85;;;;;;;;;;12445081;28;20057;-73
2021/12/17 05:35:18;;;;;;;11.10;9.93;;;;;;;;;;12459831;28;20391;-73
2021/12/17 05:41:20;;;;;;;12.90;11.70;;;;;;;;;;12467371;28;20030;-73
2021/12/17 05:47:45;;;;;;;12.90;11.65;;;;;;;;;;12454113;28;20510;-73
2021/12/17 05:53:46;;;;;;;13.02;11.85;;;;;;;;;;12451790;28;20045;-73
2021/12/17 05:59:49;;;;;;;17.23;15.57;;;;;;;;;;12468234;28;20483;-73
2021/12/17 06:05:52;;;;;;;14.23;12.90;;;;;;;;;;12467975;28;20037;-73
2021/12/17 06:11:54;;;;;;;13.52;12.10;;;;;;;;;;12467319;28;20042;-73
2021/12/17 06:17:56;;;;;;;21.20;18.98;;;;;;;;;;12467603;28;20029;-74
2021/12/17 06:23:58;;;;;;;14.00;12.70;;;;;;;;;;12467185;28;20046;-75
2021/12/17 06:30:01;;;;;;;15.40;13.88;;;;;;;;;;12434157;28;20065;-74
2021/12/17 06:36:03;;;;;;;15.27;13.77;;;;;;;;;;12434204;28;20061;-75
2021/12/17 06:42:06;;;;;;;21.47;19.27;;;;;;;;;;12471932;28;20033;-73
2021/12/17 06:48:10;;;;;;;20.08;17.98;;;;;;;;;;12461470;28;20411;-73
2021/12/17 07:05:47;;;;;;;17.65;16.02;;;;;;;;;;12505663;28;19913;-74
2021/12/17 07:33:16;;;;;;;17.08;15.40;;;;;;;;;;12492068;28;20065;-73
2021/12/17 07:39:33;;;;;;;17.52;15.65;;;;;;;;;;12487958;28;20379;-76
2021/12/17 07:45:52;;;;;;;16.75;14.98;;;;;;;;;;12471048;28;20029;-74
2021/12/17 07:51:59;;;;;;;15.23;13.82;;;;;;;;;;12461217;28;20045;-73
2021/12/17 07:58:01;;;;;;;18.60;16.67;;;;;;;;;;12455699;28;20044;-76
2021/12/17 08:04:10;;;;;;;23.65;21.38;;;;;;;;;;12453144;28;20033;-76
2021/12/17 08:10:31;;;;;;;17.73;15.95;;;;;;;;;;12479092;28;20040;-74
2021/12/17 08:16:42;;;;;;;16.98;15.38;;;;;;;;;;12478646;28;20041;-74
2021/12/17 08:35:29;;;;;;;17.37;15.70;;;;;;;;;;12471604;28;20049;-74
2021/12/17 08:41:39;;;;;;;12.52;11.23;;;;;;;;;;12459425;28;20079;-75
2021/12/17 08:47:43;;;;;;;19.48;17.55;;;;;;;;;;12469261;28;20037;-75
2021/12/17 08:53:48;;;;;;;17.88;16.20;;;;;;;;;;12476798;28;20045;-75
2021/12/17 08:59:49;;;;;;;15.77;14.20;;;;;;;;;;12455717;28;20029;-75
2021/12/17 09:06:00;;;;;;;16.75;15.13;;;;;;;;;;12481981;28;20033;-75
2021/12/17 09:12:11;;;;;;;27.50;21.58;;;;;;;;;;12474753;28;20048;-75
2021/12/17 09:18:14;;;;;;;23.92;21.35;;;;;;;;;;12484391;28;20390;-75
2021/12/17 09:24:32;;;;;;;18.35;15.55;;;;;;;;;;12474552;28;20030;-75
2021/12/17 09:30:54;;;;;;;14.37;12.87;;;;;;;;;;12484162;28;20108;-73
2021/12/17 09:36:56;;;;;;;18.77;16.80;;;;;;;;;;12467609;28;20048;-77
2021/12/17 09:42:58;;;;;;;18.90;16.85;;;;;;;;;;12479634;28;20040;-74
2021/12/17 09:49:00;;;;;;;16.20;14.52;;;;;;;;;;12479068;28;20041;-75
2021/12/17 09:55:02;;;;;;;17.70;15.80;;;;;;;;;;12471069;28;20049;-75
2021/12/17 10:01:05;;;;;;;20.15;18.10;;;;;;;;;;12470736;28;20037;-75
2021/12/17 10:07:18;;;;;;;17.43;15.63;;;;;;;;;;12484790;28;20037;-73
2021/12/17 10:13:25;;;;;;;21.52;19.38;;;;;;;;;;12469769;28;20088;-73
2021/12/17 10:19:43;;;;;;;22.80;20.45;;;;;;;;;;12476995;28;20104;-74
2021/12/17 10:25:45;;;;;;;28.83;25.13;;;;;;;;;;12492264;28;20063;-75
2021/12/17 10:31:55;;;;;;;21.80;19.17;;;;;;;;;;12484508;28;20041;-76
2021/12/17 10:38:03;;;;;;;21.70;19.58;;;;;;;;;;12481957;28;20036;-74
2021/12/17 10:44:08;;;;;;;19.08;17.08;;;;;;;;;;12481638;28;20052;-74
2021/12/17 10:50:09;;;;;;;17.95;16.10;;;;;;;;;;12478323;28;20038;-74
2021/12/17 10:56:15;;;;;;;16.95;15.35;;;;;;;;;;12482581;28;20042;-74
2021/12/17 11:02:16;;;;;;;15.48;13.88;;;;;;;;;;12481607;28;20041;-75
2021/12/17 11:08:19;;;;;;;16.45;14.75;;;;;;;;;;12466335;28;20030;-75
2021/12/17 11:14:23;;;;;;;20.48;18.38;;;;;;;;;;12479388;28;20048;-75
2021/12/17 11:20:29;;;;;;;20.40;18.35;;;;;;;;;;12487579;28;20029;-76
2021/12/17 11:26:31;;;;;;;21.08;18.98;;;;;;;;;;12486609;28;20061;-76
2021/12/17 11:32:35;;;;;;;17.83;15.93;;;;;;;;;;12487628;28;20049;-76
2021/12/17 11:38:45;;;;;;;17.27;14.88;;;;;;;;;;12481363;28;20056;-76
2021/12/17 11:44:54;;;;;;;17.73;15.93;;;;;;;;;;12492574;28;20474;-74
2021/12/17 11:51:03;;;;;;;20.95;18.80;;;;;;;;;;12486863;28;20443;-72
2021/12/17 11:57:10;;;;;;;23.08;20.70;;;;;;;;;;12476712;28;20048;-74
2021/12/17 12:03:16;;;;;;;24.27;21.73;;;;;;;;;;12480669;28;20044;-73
2021/12/17 12:09:19;;;;;;;21.02;18.92;;;;;;;;;;12485824;28;20395;-74
2021/12/17 12:15:23;;;;;;;17.45;15.70;;;;;;;;;;12493821;28;20045;-75
2021/12/17 12:21:32;;;;;;;33.95;30.33;;;;;;;;;;12427797;28;20038;-74
2021/12/17 12:27:44;;;;;;;21.13;18.67;;;;;;;;;;12444113;28;20061;-74
2021/12/17 12:34:01;;;;;;;22.50;20.20;;;;;;;;;;12446317;28;20054;-74
2021/12/17 12:40:06;;;;;;;19.88;17.88;;;;;;;;;;12445852;28;20049;-74
2021/12/17 12:46:09;;;;;;;23.52;21.05;;;;;;;;;;12427801;28;20037;-74
2021/12/17 12:52:29;;;;;;;18.67;16.77;;;;;;;;;;12443344;28;20030;-74
2021/12/17 12:58:32;;;;;;;19.73;17.55;;;;;;;;;;12446470;28;20026;-74
2021/12/17 13:04:34;;;;;;;;;;;;;;;;;;12445604;28;20041;-74
2021/12/17 13:10:39;;;;;;;18.40;16.48;;;;;;;;;;12445158;28;19913;-74
2021/12/17 13:16:54;;;;;;;16.58;14.88;;;;;;;;;;12444782;28;20444;-74
2021/12/17 13:23:00;;;;;;;14.13;12.73;;;;;;;;;;12436004;28;20038;-74
2021/12/17 13:29:10;;;;;;;17.25;15.40;;;;;;;;;;12443771;28;20049;-74
2021/12/17 13:35:15;;;;;;;12.50;11.27;;;;;;;;;;12443397;28;20499;-75
2021/12/17 13:41:19;;;;;;;18.35;16.55;;;;;;;;;;12444395;28;20029;-74
2021/12/17 13:47:21;;;;;;;16.60;14.85;;;;;;;;;;12441976;28;20038;-74
2021/12/17 13:53:23;;;;;;;21.92;19.45;;;;;;;;;;12442662;28;20418;-74
2021/12/17 13:59:43;;;;;;;14.80;13.30;;;;;;;;;;12447586;28;20052;-74
2021/12/17 14:06:01;;;;;;;14.93;13.35;;;;;;;;;;12452565;28;20046;-74
2021/12/17 14:12:10;;;;;;;19.08;17.08;;;;;;;;;;12452516;28;20479;-74
2021/12/17 14:18:15;;;;;;;19.40;17.27;;;;;;;;;;12450946;28;20045;-74
2021/12/17 14:24:29;;;;;;;16.38;14.68;;;;;;;;;;12451865;28;20052;-75
2021/12/17 14:30:35;;;;;;;17.38;15.38;;;;;;;;;;12450973;28;20069;-74
2021/12/17 14:36:41;;;;;;;19.10;17.10;;;;;;;;;;12452022;28;20506;-73
2021/12/17 14:42:45;;;;;;;15.48;13.88;;;;;;;;;;12450161;28;20399;-73
2021/12/17 14:49:08;;;;;;;15.10;13.60;;;;;;;;;;12450675;28;20034;-73
2021/12/17 15:01:35;;;;;;;12.77;11.15;;;;;;;;;;12449090;28;20034;-75
2021/12/17 15:07:37;;;;;;;17.58;15.48;;;;;;;;;;12450047;28;20030;-74
2021/12/17 15:13:39;;;;;;;11.73;10.37;;;;;;;;;;12448200;28;20045;-74
2021/12/17 15:19:41;;;;;;;9.63;8.63;;;;;;;;;;12448208;28;20463;-74
2021/12/17 15:25:43;;;;;;;11.73;10.50;;;;;;;;;;12447557;28;20061;-74
2021/12/17 15:31:45;;;;;;;11.73;10.40;;;;;;;;;;12447887;28;20041;-74
2021/12/17 15:37:49;;;;;;;10.95;9.55;;;;;;;;;;12448419;28;20037;-74
2021/12/17 15:43:51;;;;;;;12.30;10.43;;;;;;;;;;12447059;28;20078;-74
2021/12/17 15:49:53;;;;;;;12.73;10.35;;;;;;;;;;12446801;28;20030;-74
2021/12/17 15:55:55;;;;;;;12.98;11.60;;;;;;;;;;12448168;28;20053;-74
2021/12/17 16:01:57;;;;;;;9.80;8.82;;;;;;;;;;12447576;28;20041;-74
2021/12/17 16:07:59;;;;;;;12.40;10.80;;;;;;;;;;12447441;28;20022;-74
2021/12/17 16:26:41;;;;;;;17.63;14.20;;;;;;;;;;12444242;28;20423;-75
2021/12/17 16:32:43;;;;;;;13.27;11.93;;;;;;;;;;12445137;28;20053;-74
2021/12/17 16:38:44;;;;;;;19.52;16.10;;;;;;;;;;12446310;28;20034;-74
2021/12/17 16:50:59;;;;;;;17.85;15.88;;;;;;;;;;12445844;28;20285;-74
2021/12/17 16:57:01;;;;;;;23.70;21.20;;;;;;;;;;12445790;28;20042;-74
2021/12/17 17:03:03;;;;;;;23.58;20.58;;;;;;;;;;12427737;28;20507;-74
2021/12/17 17:09:06;;;;;;;20.70;17.25;;;;;;;;;;12443817;28;20399;-74
2021/12/17 17:15:08;;;;;;;22.00;19.70;;;;;;;;;;12443977;28;20053;-75
2021/12/17 17:21:10;;;;;;;19.95;17.83;;;;;;;;;;12445029;28;20033;-75
2021/12/17 17:27:11;;;;;;;21.13;18.77;;;;;;;;;;12443565;28;20050;-74
2021/12/17 17:33:13;;;;;;;29.52;26.15;;;;;;;;;;12444634;28;20414;-74
2021/12/17 17:39:16;;;;;;;45.47;38.08;;;;;;;;;;12452821;28;20064;-75
2021/12/17 17:45:18;;;;;;;34.67;28.25;;;;;;;;;;12452065;28;20034;-74
2021/12/17 17:51:20;;;;;;;34.13;28.07;;;;;;;;;;12452337;28;20402;-74
2021/12/17 17:57:21;;;;;;;36.08;30.00;;;;;;;;;;12453741;28;20049;-75
2021/12/17 18:03:23;;;;;;;27.05;23.23;;;;;;;;;;12453106;28;20081;-74
2021/12/17 18:09:25;;;;;;;33.25;27.33;;;;;;;;;;12452483;28;20038;-74
2021/12/17 18:15:27;;;;;;;37.10;32.83;;;;;;;;;;12452215;28;20046;-74
2021/12/17 18:21:29;;;;;;;52.13;43.90;;;;;;;;;;12451931;28;20044;-74
2021/12/17 18:27:30;;;;;;;37.30;32.65;;;;;;;;;;12450794;28;20447;-74
2021/12/17 18:33:32;;;;;;;48.78;40.78;;;;;;;;;;12450436;28;20054;-73
2021/12/17 18:39:37;;;;;;;52.53;45.22;;;;;;;;;;12451692;28;20032;-73
2021/12/17 18:45:40;;;;;;;36.25;32.20;;;;;;;;;;12448582;28;20042;-74
2021/12/17 18:51:41;;;;;;;36.03;32.17;;;;;;;;;;12449492;28;20049;-73
2021/12/17 18:57:43;;;;;;;32.95;29.35;;;;;;;;;;12450556;28;20048;-74
2021/12/17 19:03:45;;;;;;;45.13;38.83;;;;;;;;;;12448985;28;20034;-73
2021/12/17 19:09:47;;;;;;;39.03;34.92;;;;;;;;;;12448730;28;20498;-74
2021/12/17 19:15:48;;;;;;;34.30;30.75;;;;;;;;;;12448705;28;20041;-75
2021/12/17 19:28:05;;;;;;;29.40;26.52;;;;;;;;;;12449442;28;20376;-74
2021/12/17 19:34:07;;;;;;;;;;;;;;;;;;12449195;28;20049;-74
2021/12/17 19:40:11;;;;;;;26.20;23.40;;;;;;;;;;12447517;28;19916;-74
2021/12/17 19:46:21;;;;;;;28.45;25.60;;;;;;;;;;12448119;28;20037;-74
2021/12/17 19:52:23;;;;;;;27.73;24.90;;;;;;;;;;12448640;28;20037;-74
2021/12/17 19:58:25;;;;;;;26.80;24.23;;;;;;;;;;12447007;28;20044;-75
2021/12/17 20:04:28;;;;;;;30.65;27.52;;;;;;;;;;12448483;28;20041;-74
2021/12/17 20:10:29;;;;;;;31.10;27.80;;;;;;;;;;12447465;28;20030;-74
2021/12/17 20:16:31;;;;;;;21.88;19.67;;;;;;;;;;12445609;28;20053;-74
2021/12/17 20:22:33;;;;;;;32.30;29.13;;;;;;;;;;12445555;28;20021;-73
2021/12/17 20:28:38;;;;;;;32.27;29.07;;;;;;;;;;12429397;28;20054;-75
2021/12/17 20:34:39;;;;;;;33.92;30.48;;;;;;;;;;12446222;28;20046;-74
2021/12/17 20:40:42;;;;;;;28.40;25.65;;;;;;;;;;12446421;28;20041;-75
2021/12/17 20:46:44;;;;;;;;;;;;;;;;;;12446493;28;20479;-73
2021/12/17 20:52:46;;;;;;;32.47;29.02;;;;;;;;;;12445875;28;20275;-74
2021/12/17 20:58:47;;;;;;;33.08;29.52;;;;;;;;;;12446532;28;20045;-73
2021/12/17 21:04:49;;;;;;;32.63;29.23;;;;;;;;;;12445282;28;20034;-73
2021/12/17 21:10:51;;;;;;;33.53;30.25;;;;;;;;;;12450767;28;20422;-74
2021/12/17 21:16:55;;;;;;;34.40;30.90;;;;;;;;;;12455566;28;20402;-73
2021/12/17 21:22:57;;;;;;;36.05;30.85;;;;;;;;;;12453584;28;20037;-73
2021/12/17 21:28:59;;;;;;;37.45;33.75;;;;;;;;;;12453873;28;20384;-73
2021/12/17 21:35:18;;;;;;;33.80;30.27;;;;;;;;;;12454071;28;20046;-73
2021/12/17 21:41:21;;;;;;;34.95;31.40;;;;;;;;;;12453039;28;20036;-73
2021/12/17 21:47:23;;;;;;;35.23;31.73;;;;;;;;;;12454003;28;20396;-73
2021/12/17 21:53:24;;;;;;;36.80;33.20;;;;;;;;;;12453625;28;20301;-74
2021/12/17 21:59:26;;;;;;;30.52;27.35;;;;;;;;;;12452742;28;20468;-73
2021/12/17 22:05:33;;;;;;;36.30;32.60;;;;;;;;;;12451890;28;20037;-74
2021/12/17 22:11:34;;;;;;;33.85;30.45;;;;;;;;;;12451315;28;20042;-74
2021/12/17 22:17:38;;;;;;;30.10;27.17;;;;;;;;;;12452270;28;20046;-74
2021/12/17 22:23:39;;;;;;;33.05;29.80;;;;;;;;;;12452145;28;20042;-74
2021/12/17 22:29:41;;;;;;;26.30;23.70;;;;;;;;;;12434609;28;20053;-74
2021/12/17 22:35:43;;;;;;;32.80;29.55;;;;;;;;;;12451751;28;20045;-74
2021/12/17 22:41:46;;;;;;;39.72;35.67;;;;;;;;;;12451409;28;20037;-73
2021/12/17 22:47:47;;;;;;;;;;;;;;;;;;12450335;28;20045;-73
2021/12/17 22:53:49;;;;;;;35.80;32.20;;;;;;;;;;12450673;28;19940;-75
2021/12/17 22:59:51;;;;;;;36.13;32.42;;;;;;;;;;12451630;28;20045;-73
2021/12/17 23:05:53;;;;;;;36.22;32.60;;;;;;;;;;12449205;28;20534;-73
2021/12/17 23:12:06;;;;;;;34.38;30.92;;;;;;;;;;12450164;28;20419;-73
2021/12/17 23:18:08;;;;;;;25.13;22.58;;;;;;;;;;12449697;28;20038;-73
2021/12/17 23:24:10;;;;;;;38.45;34.40;;;;;;;;;;12449509;28;20236;-73
2021/12/17 23:30:12;;;;;;;36.17;32.45;;;;;;;;;;12449742;28;20060;-73
2021/12/17 23:36:14;;;;;;;39.33;35.25;;;;;;;;;;12448921;28;20045;-73
2021/12/17 23:42:19;;;;;;;45.20;40.50;;;;;;;;;;12448762;28;20030;-73
2021/12/17 23:48:21;;;;;;;42.65;38.10;;;;;;;;;;12447073;28;20403;-73
2021/12/17 23:54:23;;;;;;;40.95;36.80;;;;;;;;;;12448220;28;20057;-74
